createdAt,value
2022-10-24T00:01:11.757Z,1.00
2022-10-24T00:03:38.478Z,1.05
2022-10-24T00:06:07.474Z,0.90
2022-10-24T00:08:35.671Z,1.55
2022-10-24T00:11:02.330Z,1.05
2022-10-24T00:13:28.940Z,1.00
2022-10-24T00:15:55.513Z,1.38
2022-10-24T00:18:22.121Z,1.30
2022-10-24T00:20:48.661Z,1.30
2022-10-24T00:23:15.171Z,1.30
2022-10-24T00:25:41.702Z,1.00
2022-10-24T00:28:08.287Z,0.80
2022-10-24T00:30:34.876Z,1.23
2022-10-24T00:33:01.387Z,1.25
2022-10-24T00:35:28.153Z,1.15
2022-10-24T00:37:54.744Z,1.25
2022-10-24T00:40:21.826Z,1.70
2022-10-24T00:42:48.860Z,1.27
2022-10-24T00:45:43.387Z,1.70
2022-10-24T00:48:20.809Z,1.60
2022-10-24T00:50:49.577Z,1.52
2022-10-24T00:53:16.675Z,1.30
2022-10-24T00:55:46.261Z,1.27
2022-10-24T00:58:13.493Z,1.08
2022-10-24T01:00:40.075Z,1.27
2022-10-24T01:03:07.667Z,1.20
2022-10-24T01:06:05.574Z,1.17
2022-10-24T01:09:10.833Z,1.25
2022-10-24T01:12:05.441Z,1.27
2022-10-24T01:14:58.436Z,1.38
2022-10-24T01:17:30.741Z,1.35
2022-10-24T01:20:03.261Z,1.42
2022-10-24T01:22:58.381Z,1.20
2022-10-24T01:25:32.587Z,1.27
2022-10-24T01:28:13.136Z,1.52
2022-10-24T01:30:51.040Z,1.08
2022-10-24T01:33:25.945Z,1.33
2022-10-24T01:35:58.518Z,1.25
2022-10-24T01:38:40.837Z,1.63
2022-10-24T01:41:22.819Z,1.58
2022-10-24T01:44:05.053Z,1.70
2022-10-24T01:46:39.935Z,1.90
2022-10-24T01:49:18.805Z,1.88
2022-10-24T01:51:48.600Z,1.23
2022-10-24T01:54:15.912Z,1.20
2022-10-24T01:56:44.118Z,1.67
2022-10-24T01:59:28.792Z,1.40
2022-10-24T02:02:02.844Z,1.48
2022-10-24T02:04:32.876Z,1.05
2022-10-24T02:07:02.375Z,1.20
2022-10-24T02:09:32.606Z,1.58
2022-10-24T02:12:00.721Z,1.48
2022-10-24T02:14:48.584Z,1.60
2022-10-24T02:17:15.891Z,1.23
2022-10-24T02:19:43.520Z,1.33
2022-10-24T02:22:33.984Z,1.65
2022-10-24T02:25:10.554Z,1.50
2022-10-24T02:27:39.908Z,1.58
2022-10-24T02:30:14.044Z,1.38
2022-10-24T02:32:44.411Z,1.15
2022-10-24T02:35:14.205Z,1.30
2022-10-24T02:37:47.784Z,1.73
2022-10-24T02:40:16.561Z,1.83
2022-10-24T02:42:45.801Z,1.50
2022-10-24T02:45:14.055Z,1.65
2022-10-24T02:47:43.235Z,1.50
2022-10-24T02:50:10.515Z,1.38
2022-10-24T02:52:38.488Z,1.30
2022-10-24T02:55:06.044Z,1.48
2022-10-24T02:57:32.572Z,1.38
2022-10-24T02:59:59.112Z,1.83
2022-10-24T03:02:26.813Z,1.20
2022-10-24T03:04:53.357Z,1.25
2022-10-24T03:07:19.987Z,1.40
2022-10-24T03:09:46.559Z,1.40
2022-10-24T03:12:16.868Z,1.63
2022-10-24T03:14:45.140Z,1.50
2022-10-24T03:17:11.660Z,1.52
2022-10-24T03:19:38.506Z,1.63
2022-10-24T03:22:05.221Z,1.45
2022-10-24T03:24:43.758Z,1.23
2022-10-24T03:27:11.720Z,1.67
2022-10-24T03:29:38.288Z,1.10
2022-10-24T03:32:05.560Z,1.30
2022-10-24T03:34:32.327Z,1.35
2022-10-24T03:36:58.919Z,1.42
2022-10-24T03:39:25.480Z,1.45
2022-10-24T03:41:52.047Z,1.98
2022-10-24T03:44:18.785Z,1.73
2022-10-24T03:46:45.356Z,1.30
2022-10-24T03:49:11.882Z,1.30
2022-10-24T03:51:38.443Z,1.63
2022-10-24T03:54:05.096Z,1.42
2022-10-24T03:56:31.637Z,1.40
2022-10-24T03:58:58.190Z,1.50
2022-10-24T04:01:27.310Z,1.60
2022-10-24T04:03:53.891Z,1.30
2022-10-24T04:06:20.411Z,1.38
2022-10-24T04:08:47.021Z,1.73
2022-10-24T04:11:13.627Z,1.58
2022-10-24T04:13:40.707Z,1.90
2022-10-24T04:16:07.856Z,1.30
2022-10-24T04:18:34.484Z,2.00
2022-10-24T04:21:01.052Z,1.83
2022-10-24T04:23:27.865Z,1.83
2022-10-24T04:25:55.659Z,1.60
2022-10-24T04:28:22.181Z,1.77
2022-10-24T04:30:54.965Z,1.98
2022-10-24T04:33:21.512Z,1.67
2022-10-24T04:35:49.298Z,2.00
2022-10-24T04:38:16.456Z,1.60
2022-10-24T04:40:48.954Z,1.50
2022-10-24T04:43:15.854Z,1.35
2022-10-24T04:45:42.356Z,1.38
2022-10-24T04:48:08.969Z,1.65
2022-10-24T04:50:35.776Z,1.40
2022-10-24T04:53:02.399Z,1.52
2022-10-24T04:55:29.074Z,1.80
2022-10-24T04:57:55.655Z,1.80
2022-10-24T05:00:22.315Z,1.88
2022-10-24T05:02:49.009Z,1.23
2022-10-24T05:05:17.069Z,1.45
2022-10-24T05:07:44.987Z,1.70
2022-10-24T05:10:12.790Z,1.58
2022-10-24T05:12:39.605Z,1.58
2022-10-24T05:15:07.708Z,2.25
2022-10-24T05:17:34.693Z,1.60
2022-10-24T05:20:01.957Z,1.80
2022-10-24T05:22:28.538Z,1.80
2022-10-24T05:24:55.044Z,1.88
2022-10-24T05:27:24.570Z,2.30
2022-10-24T05:29:52.212Z,2.17
2022-10-24T05:32:19.945Z,1.55
2022-10-24T05:34:46.657Z,1.55
2022-10-24T05:37:13.263Z,1.85
2022-10-24T05:39:39.845Z,1.95
2022-10-24T05:42:06.903Z,1.90
2022-10-24T05:44:33.714Z,2.15
2022-10-24T05:47:00.284Z,2.00
2022-10-24T05:49:26.831Z,1.73
2022-10-24T05:51:53.364Z,1.42
2022-10-24T05:54:19.972Z,1.77
2022-10-24T05:56:46.495Z,1.50
2022-10-24T05:59:13.135Z,1.98
2022-10-24T06:01:40.873Z,1.70
2022-10-24T06:04:11.312Z,1.30
2022-10-24T06:06:44.527Z,1.42
2022-10-24T06:09:12.133Z,1.30
2022-10-24T06:11:38.743Z,1.35
2022-10-24T06:14:06.128Z,1.50
2022-10-24T06:16:34.281Z,1.30
2022-10-24T06:19:00.928Z,1.75
2022-10-24T06:21:28.376Z,1.50
2022-10-24T06:23:55.096Z,1.52
2022-10-24T06:26:24.015Z,1.60
2022-10-24T06:28:50.890Z,1.63
2022-10-24T06:31:19.719Z,1.38
2022-10-24T06:33:46.429Z,1.60
2022-10-24T06:36:14.302Z,1.25
2022-10-24T06:38:42.286Z,1.90
2022-10-24T06:41:10.896Z,1.50
2022-10-24T06:43:38.161Z,1.88
2022-10-24T06:46:12.777Z,1.85
2022-10-24T06:48:39.511Z,1.35
2022-10-24T06:51:06.973Z,1.70
2022-10-24T06:53:34.322Z,1.48
2022-10-24T06:56:02.697Z,1.35
2022-10-24T06:58:36.680Z,1.95
2022-10-24T07:01:19.205Z,1.67
2022-10-24T07:03:46.729Z,1.73
2022-10-24T07:06:25.121Z,1.95
2022-10-24T07:08:53.386Z,1.67
2022-10-24T07:11:20.544Z,1.70
2022-10-24T07:13:47.539Z,1.92
2022-10-24T07:16:17.876Z,1.77
2022-10-24T07:18:44.900Z,2.00
2022-10-24T07:21:15.524Z,1.85
2022-10-24T07:23:42.310Z,1.65
2022-10-24T07:26:12.393Z,1.77
2022-10-24T07:28:39.952Z,1.88
2022-10-24T07:31:07.416Z,1.42
2022-10-24T07:33:34.468Z,1.70
2022-10-24T07:36:00.985Z,1.75
2022-10-24T07:38:27.567Z,1.40
2022-10-24T07:40:54.185Z,1.38
2022-10-24T07:43:20.765Z,1.50
2022-10-24T07:45:50.562Z,1.80
2022-10-24T07:51:12.260Z,1.83
2022-10-24T07:53:39.717Z,1.75
2022-10-24T07:56:09.342Z,1.52
2022-10-24T07:58:36.669Z,2.15
2022-10-24T08:01:05.336Z,1.52
2022-10-24T08:03:31.976Z,1.50
2022-10-24T08:05:58.624Z,1.50
2022-10-24T08:08:35.675Z,1.40
2022-10-24T08:11:15.180Z,1.38
2022-10-24T08:13:42.331Z,1.38
2022-10-24T08:16:11.218Z,1.65
2022-10-24T08:18:40.002Z,2.05
2022-10-24T08:21:09.587Z,1.25
2022-10-24T08:23:40.126Z,2.03
2022-10-24T08:26:10.397Z,1.33
2022-10-24T08:28:37.092Z,1.52
2022-10-24T08:31:07.588Z,1.10
2022-10-24T08:33:34.959Z,1.65
2022-10-24T08:36:05.619Z,1.90
2022-10-24T08:38:32.880Z,1.50
2022-10-24T08:41:00.572Z,1.73
2022-10-24T08:43:27.429Z,1.38
2022-10-24T08:46:02.895Z,1.77
2022-10-24T08:48:35.972Z,1.70
2022-10-24T08:51:12.743Z,1.35
2022-10-24T08:53:40.617Z,1.10
2022-10-24T08:56:10.330Z,0.90
2022-10-24T08:58:45.039Z,1.30
2022-10-24T09:01:26.946Z,1.38
2022-10-24T09:03:56.573Z,1.20
2022-10-24T09:06:30.014Z,1.42
2022-10-24T09:08:59.876Z,1.25
2022-10-24T09:11:51.486Z,1.30
2022-10-24T09:14:24.919Z,1.20
2022-10-24T09:17:02.212Z,0.90
2022-10-24T09:19:30.715Z,0.93
2022-10-24T09:21:59.220Z,1.10
2022-10-24T09:24:39.236Z,1.15
2022-10-24T09:27:16.860Z,0.85
2022-10-24T09:29:43.677Z,1.33
2022-10-24T09:32:20.756Z,1.23
2022-10-24T09:34:48.216Z,1.25
2022-10-24T09:37:42.812Z,0.95
2022-10-24T09:40:29.963Z,1.27
2022-10-24T09:43:16.623Z,1.30
2022-10-24T09:46:03.939Z,1.15
2022-10-24T09:48:40.041Z,0.90
2022-10-24T09:51:08.086Z,1.20
2022-10-24T09:53:41.092Z,0.93
2022-10-24T09:56:13.445Z,1.08
2022-10-24T09:58:41.083Z,1.13
2022-10-24T10:01:16.854Z,0.80
2022-10-24T10:03:44.165Z,1.35
2022-10-24T10:06:17.912Z,0.65
2022-10-24T10:08:54.208Z,0.70
2022-10-24T10:11:31.603Z,0.85
2022-10-24T10:14:02.042Z,0.73
2022-10-24T10:16:38.346Z,1.15
2022-10-24T10:19:13.622Z,1.45
2022-10-24T10:22:07.189Z,1.30
2022-10-24T10:24:41.796Z,1.13
2022-10-24T10:27:35.560Z,0.80
2022-10-24T10:30:16.839Z,0.60
2022-10-24T10:33:15.172Z,0.98
2022-10-24T10:36:13.725Z,0.90
2022-10-24T10:38:49.799Z,1.13
2022-10-24T10:41:29.581Z,0.98
2022-10-24T10:44:39.175Z,1.10
2022-10-24T10:47:38.172Z,0.90
2022-10-24T10:50:24.550Z,0.60
2022-10-24T10:52:51.411Z,1.05
2022-10-24T10:55:42.644Z,1.05
2022-10-24T10:58:47.035Z,0.70
2022-10-24T11:01:27.283Z,0.80
2022-10-24T11:04:23.806Z,1.05
2022-10-24T11:07:01.669Z,0.93
2022-10-24T11:09:36.654Z,1.30
2022-10-24T11:12:22.942Z,0.70
2022-10-24T11:14:57.900Z,1.52
2022-10-24T11:17:31.107Z,0.90
2022-10-24T11:20:24.583Z,1.17
2022-10-24T11:23:12.352Z,0.70
2022-10-24T11:25:44.337Z,0.98
2022-10-24T11:28:39.813Z,0.85
2022-10-24T11:31:15.060Z,0.73
2022-10-24T11:34:01.010Z,1.05
2022-10-24T11:36:41.716Z,0.50
2022-10-24T11:39:23.998Z,1.00
2022-10-24T11:42:17.998Z,0.77
2022-10-24T11:45:09.957Z,1.42
2022-10-24T11:47:48.487Z,1.10
2022-10-24T11:50:26.711Z,0.75
2022-10-24T11:52:59.952Z,0.50
2022-10-24T11:55:37.130Z,0.50
2022-10-24T11:58:05.959Z,0.70
2022-10-24T12:00:42.152Z,0.60
2022-10-24T12:03:43.966Z,0.77
2022-10-24T12:06:20.124Z,0.90
2022-10-24T12:08:58.425Z,1.02
2022-10-24T12:11:44.035Z,0.55
2022-10-24T12:14:25.293Z,0.60
2022-10-24T12:17:16.832Z,1.02
2022-10-24T12:19:46.589Z,0.80
2022-10-24T12:22:23.651Z,0.50
2022-10-24T12:25:03.275Z,0.52
2022-10-24T12:27:39.683Z,1.33
2022-10-24T12:30:09.292Z,0.90
2022-10-24T12:32:48.175Z,1.00
2022-10-24T12:35:35.423Z,1.25
2022-10-24T12:38:14.206Z,1.50
2022-10-24T12:40:48.647Z,1.17
2022-10-24T12:43:29.112Z,1.42
2022-10-24T12:46:00.201Z,0.65
2022-10-24T12:48:36.105Z,1.00
2022-10-24T12:51:27.457Z,0.80
2022-10-24T12:54:11.198Z,0.60
2022-10-24T12:57:02.644Z,0.80
2022-10-24T12:59:30.727Z,0.63
2022-10-24T13:02:16.645Z,0.50
2022-10-24T13:05:21.833Z,0.63
2022-10-24T13:08:14.084Z,0.70
2022-10-24T13:10:49.140Z,0.98
2022-10-24T13:13:37.256Z,1.00
2022-10-24T13:16:13.270Z,0.50
2022-10-24T13:19:10.495Z,0.85
2022-10-24T13:21:50.093Z,0.38
2022-10-24T13:24:16.790Z,1.25
2022-10-24T13:26:46.016Z,0.80
2022-10-24T13:29:22.888Z,0.80
2022-10-24T13:31:53.337Z,0.73
2022-10-24T13:34:24.226Z,0.52
2022-10-24T13:37:10.910Z,0.88
2022-10-24T13:39:42.592Z,0.70
2022-10-24T13:42:24.075Z,0.60
2022-10-24T13:44:54.491Z,0.70
2022-10-24T13:47:25.815Z,1.15
2022-10-24T13:50:04.963Z,0.52
2022-10-24T13:52:39.434Z,0.85
2022-10-24T13:55:12.313Z,1.13
2022-10-24T13:58:01.260Z,0.82
2022-10-24T14:00:33.637Z,0.70
2022-10-24T14:03:04.743Z,0.95
2022-10-24T14:05:47.877Z,0.63
2022-10-24T14:08:50.846Z,1.75
2022-10-24T14:11:25.312Z,1.05
2022-10-24T14:13:55.018Z,1.20
2022-10-24T14:16:30.153Z,0.80
2022-10-24T14:19:17.642Z,1.35
2022-10-24T14:21:46.804Z,1.45
2022-10-24T14:24:19.692Z,0.98
2022-10-24T14:26:47.879Z,0.95
2022-10-24T14:29:32.683Z,1.40
2022-10-24T14:32:01.864Z,1.30
2022-10-24T14:34:35.218Z,0.90
2022-10-24T14:37:08.955Z,0.90
2022-10-24T14:39:36.722Z,0.93
2022-10-24T14:42:03.749Z,1.08
2022-10-24T14:44:30.540Z,0.88
2022-10-24T14:47:21.809Z,0.88
2022-10-24T14:49:48.477Z,1.00
2022-10-24T14:52:19.526Z,1.55
2022-10-24T14:55:03.061Z,0.68
2022-10-24T14:57:32.030Z,0.80
2022-10-24T15:00:07.252Z,0.63
2022-10-24T15:02:41.951Z,0.85
2022-10-24T15:05:32.684Z,1.10
2022-10-24T15:08:22.439Z,1.52
2022-10-24T15:11:00.475Z,0.40
2022-10-24T15:13:31.344Z,1.42
2022-10-24T15:15:59.541Z,0.50
2022-10-24T15:18:30.792Z,1.15
2022-10-24T15:21:16.000Z,0.82
2022-10-24T15:23:48.529Z,0.63
2022-10-24T15:26:27.226Z,0.80
2022-10-24T15:29:07.472Z,1.02
2022-10-24T15:31:37.852Z,0.80
2022-10-24T15:34:07.417Z,0.43
2022-10-24T15:36:36.390Z,0.70
2022-10-24T15:39:07.229Z,0.60
2022-10-24T15:41:34.005Z,0.57
2022-10-24T15:44:01.677Z,1.23
2022-10-24T15:46:28.736Z,1.13
2022-10-24T15:48:55.465Z,0.50
2022-10-24T15:51:24.251Z,0.50
2022-10-24T15:53:52.572Z,0.98
2022-10-24T15:56:19.123Z,0.75
2022-10-24T15:58:45.671Z,0.63
2022-10-24T16:01:27.541Z,0.80
2022-10-24T16:03:55.060Z,0.60
2022-10-24T16:06:22.209Z,0.80
2022-10-24T16:08:49.878Z,1.10
2022-10-24T16:11:16.550Z,0.65
2022-10-24T16:13:43.100Z,1.25
2022-10-24T16:16:09.798Z,0.60
2022-10-24T16:18:36.575Z,0.95
2022-10-24T16:21:04.992Z,0.70
2022-10-24T16:23:32.997Z,0.65
2022-10-24T16:25:59.786Z,1.50
2022-10-24T16:28:26.816Z,0.70
2022-10-24T16:30:53.392Z,0.82
2022-10-24T16:33:23.212Z,0.50
2022-10-24T16:35:50.889Z,0.90
2022-10-24T16:38:17.920Z,0.90
2022-10-24T16:40:49.673Z,0.63
2022-10-24T16:43:18.717Z,1.25
2022-10-24T16:45:55.399Z,0.77
2022-10-24T16:48:21.951Z,0.80
2022-10-24T16:50:48.514Z,0.80
2022-10-24T16:53:18.464Z,1.00
2022-10-24T16:55:53.233Z,1.02
2022-10-24T16:58:21.530Z,0.85
2022-10-24T17:00:48.265Z,1.00
2022-10-24T17:03:15.357Z,1.02
2022-10-24T17:05:45.316Z,0.77
2022-10-24T17:08:11.876Z,1.27
2022-10-24T17:10:40.141Z,0.85
2022-10-24T17:13:07.542Z,1.17
2022-10-24T17:15:34.238Z,0.90
2022-10-24T17:18:00.777Z,0.60
2022-10-24T17:20:27.415Z,1.25
2022-10-24T17:22:54.228Z,0.80
2022-10-24T17:25:23.723Z,0.70
2022-10-24T17:27:51.028Z,0.85
2022-10-24T17:30:20.784Z,1.10
2022-10-24T17:32:47.646Z,0.63
2022-10-24T17:35:17.288Z,0.80
2022-10-24T17:38:16.280Z,1.42
2022-10-24T17:40:48.296Z,1.02
2022-10-24T17:43:19.270Z,0.88
2022-10-24T17:45:46.217Z,0.75
2022-10-24T17:48:12.880Z,1.00
2022-10-24T17:50:42.416Z,0.60
2022-10-24T17:53:12.004Z,0.70
2022-10-24T17:55:47.831Z,0.50
2022-10-24T18:01:06.806Z,0.77
2022-10-24T18:03:35.010Z,1.23
2022-10-24T18:06:03.424Z,0.45
2022-10-24T18:08:30.012Z,0.60
2022-10-24T18:13:53.002Z,0.50
2022-10-24T18:16:19.922Z,1.50
2022-10-24T18:18:47.719Z,0.95
2022-10-24T18:23:51.599Z,0.70
2022-10-24T18:26:21.151Z,0.73
2022-10-24T18:28:50.044Z,0.82
2022-10-24T18:31:22.073Z,1.00
2022-10-24T18:33:49.466Z,1.73
2022-10-24T18:36:18.959Z,1.15
2022-10-24T18:38:45.758Z,0.90
2022-10-24T18:41:30.926Z,1.05
2022-10-24T18:44:03.577Z,0.73
2022-10-24T18:46:30.576Z,0.70
2022-10-24T18:48:57.386Z,1.00
2022-10-24T18:51:32.197Z,0.80
2022-10-24T18:54:05.277Z,0.63
2022-10-24T18:56:32.320Z,1.10
2022-10-24T18:58:59.182Z,0.95
2022-10-24T19:01:38.865Z,0.63
2022-10-24T19:04:15.489Z,0.93
2022-10-24T19:06:42.921Z,0.90
2022-10-24T19:09:21.344Z,0.70
2022-10-24T19:11:48.878Z,0.60
2022-10-24T19:14:16.446Z,1.17
2022-10-24T19:16:45.777Z,0.47
2022-10-24T19:19:16.233Z,1.00
2022-10-24T19:21:43.510Z,1.02
2022-10-24T19:24:11.868Z,1.08
2022-10-24T19:26:38.424Z,1.10
2022-10-24T19:29:05.905Z,0.80
2022-10-24T19:31:32.893Z,1.10
2022-10-24T19:33:59.437Z,0.90
2022-10-24T19:38:57.342Z,1.02
2022-10-24T19:41:24.277Z,1.20
2022-10-24T19:43:51.066Z,1.58
2022-10-24T19:46:20.326Z,1.40
2022-10-24T19:48:49.122Z,1.00
2022-10-24T19:51:16.896Z,1.13
2022-10-24T19:53:44.784Z,1.15
2022-10-24T19:56:23.881Z,0.98
2022-10-24T19:58:52.335Z,0.80
2022-10-24T20:01:22.321Z,1.55
2022-10-24T20:03:49.948Z,1.42
2022-10-24T20:06:17.373Z,1.00
2022-10-24T20:08:46.457Z,1.73
2022-10-24T20:11:13.877Z,1.13
2022-10-24T20:13:40.465Z,1.60
2022-10-24T20:16:12.755Z,1.48
2022-10-24T20:21:10.064Z,1.38
2022-10-24T20:23:37.259Z,1.30
2022-10-24T20:26:12.555Z,1.10
2022-10-24T20:28:44.700Z,1.23
2022-10-24T20:31:39.234Z,1.30
2022-10-24T20:34:10.535Z,1.08
2022-10-24T20:36:38.932Z,1.13
2022-10-24T20:39:08.957Z,1.13
2022-10-24T20:41:36.351Z,1.95
2022-10-24T20:44:03.897Z,1.40
2022-10-24T20:46:31.339Z,2.08
2022-10-24T20:48:58.054Z,1.60
2022-10-24T20:51:24.791Z,1.83
2022-10-24T20:53:51.867Z,1.50
2022-10-24T20:56:22.263Z,1.77
2022-10-24T20:58:50.601Z,1.75
2022-10-24T21:01:23.119Z,1.88
2022-10-24T21:03:51.202Z,1.42
2022-10-24T21:06:29.325Z,1.60
2022-10-24T21:08:58.777Z,1.52
2022-10-24T21:11:28.319Z,1.52
2022-10-24T21:14:00.148Z,1.52
2022-10-24T21:16:27.709Z,1.38
2022-10-24T21:18:54.713Z,1.70
2022-10-24T21:21:23.513Z,1.50
2022-10-24T21:24:00.926Z,1.60
2022-10-24T21:26:30.885Z,1.20
2022-10-24T21:29:08.514Z,1.33
2022-10-24T21:31:44.109Z,1.52
2022-10-24T21:34:10.822Z,1.67
2022-10-24T21:36:37.342Z,1.60
2022-10-24T21:39:04.217Z,1.30
2022-10-24T21:41:30.745Z,1.40
2022-10-24T21:43:58.625Z,1.77
2022-10-24T21:46:29.010Z,1.60
2022-10-24T21:48:56.684Z,1.40
2022-10-24T21:51:35.063Z,2.08
2022-10-24T21:54:04.215Z,1.40
2022-10-24T21:56:33.292Z,1.52
2022-10-24T22:01:36.326Z,1.38
2022-10-24T22:04:04.327Z,1.65
2022-10-24T22:06:32.023Z,1.50
2022-10-24T22:08:59.126Z,1.23
2022-10-24T22:11:28.008Z,1.65
2022-10-24T22:13:55.168Z,1.77
2022-10-24T22:19:15.360Z,1.52
2022-10-24T22:21:44.608Z,1.35
2022-10-24T22:24:14.524Z,1.30
2022-10-24T22:26:41.948Z,1.52
2022-10-24T22:29:10.513Z,1.60
2022-10-24T22:31:37.712Z,1.58
2022-10-24T22:34:05.142Z,1.70
2022-10-24T22:36:55.436Z,1.02
2022-10-24T22:39:26.077Z,1.45
2022-10-24T22:41:53.308Z,1.60
2022-10-24T22:44:20.890Z,1.23
2022-10-24T22:47:12.538Z,1.58
2022-10-24T22:50:09.872Z,1.27
2022-10-24T22:52:37.413Z,1.27
2022-10-24T22:55:09.248Z,1.55
2022-10-24T22:57:37.323Z,1.35
2022-10-24T23:00:04.459Z,1.83
2022-10-24T23:02:40.415Z,1.30
2022-10-24T23:05:13.660Z,2.15
2022-10-24T23:07:57.134Z,1.50
2022-10-24T23:10:25.392Z,1.45
2022-10-24T23:12:52.462Z,1.50
2022-10-24T23:15:20.890Z,1.70
2022-10-24T23:17:48.543Z,1.95
2022-10-24T23:20:39.108Z,1.33
2022-10-24T23:23:17.184Z,1.58
2022-10-24T23:26:09.280Z,1.73
2022-10-24T23:28:58.292Z,1.48
2022-10-24T23:31:25.151Z,1.42
2022-10-24T23:33:51.949Z,1.20
2022-10-24T23:36:25.202Z,1.73
2022-10-24T23:38:54.857Z,1.13
2022-10-24T23:41:21.804Z,2.22
2022-10-24T23:43:48.584Z,1.50
2022-10-24T23:46:26.245Z,1.45
2022-10-24T23:49:11.275Z,2.10
2022-10-24T23:52:03.980Z,1.50
2022-10-24T23:54:32.762Z,1.27
2022-10-24T23:57:00.051Z,1.40
2022-10-24T23:59:26.572Z,2.13
